Time;durP1;ratioP1;P1;durP2;ratioP2;P2;SDS_P1;SDS_P2;PMS_P1;PMS_P2;Temp;Humidity;BMP_temperature;BMP_pressure;BME280_temperature;BME280_humidity;BME280_pressure;Samples;Min_cycle;Max_cycle;Signal;HPM_P1;HPM_P2
2021/07/30 00:02:19;;;;;;;3.38;3.08;;;;;;;;;;5115006;28;20211;-45
2021/07/30 00:04:46;;;;;;;3.75;3.40;;;;;;;;;;5118971;28;20210;-45
2021/07/30 00:07:12;;;;;;;6.10;3.42;;;;;;;;;;5087749;28;20292;-45
2021/07/30 00:09:38;;;;;;;4.72;3.45;;;;;;;;;;5086991;28;20548;-45
2021/07/30 00:12:04;;;;;;;3.50;3.20;;;;;;;;;;5078095;28;20171;-45
2021/07/30 00:14:30;;;;;;;4.30;3.22;;;;;;;;;;5096509;28;20237;-45
2021/07/30 00:16:56;;;;;;;5.00;3.10;;;;;;;;;;5091921;28;20469;-44
2021/07/30 00:19:22;;;;;;;3.78;2.90;;;;;;;;;;5077941;28;20172;-45
2021/07/30 00:21:48;;;;;;;3.35;2.97;;;;;;;;;;5094092;28;20173;-45
2021/07/30 00:24:14;;;;;;;3.08;2.78;;;;;;;;;;5096897;28;20268;-45
2021/07/30 00:26:40;;;;;;;2.90;2.60;;;;;;;;;;5098318;28;20212;-45
2021/07/30 00:29:06;;;;;;;3.50;3.17;;;;;;;;;;5102519;28;20218;-44
2021/07/30 00:31:32;;;;;;;4.05;3.20;;;;;;;;;;5110733;28;20190;-45
2021/07/30 00:33:58;;;;;;;3.53;2.67;;;;;;;;;;5097956;28;20548;-45
2021/07/30 00:36:24;;;;;;;3.15;2.85;;;;;;;;;;5111724;28;20190;-45
2021/07/30 00:38:51;;;;;;;3.83;3.10;;;;;;;;;;5117019;28;20181;-45
2021/07/30 00:41:17;;;;;;;5.20;2.70;;;;;;;;;;5118366;28;20181;-46
2021/07/30 00:43:43;;;;;;;3.25;2.63;;;;;;;;;;5118227;28;20173;-45
2021/07/30 00:46:09;;;;;;;4.50;2.63;;;;;;;;;;5105822;28;20577;-45
2021/07/30 00:48:35;;;;;;;4.45;2.78;;;;;;;;;;5098790;28;20180;-45
2021/07/30 00:51:01;;;;;;;4.63;2.53;;;;;;;;;;5111447;28;20173;-45
2021/07/30 00:53:27;;;;;;;2.65;2.45;;;;;;;;;;5110114;28;20443;-45
2021/07/30 00:55:57;;;;;;;2.75;2.40;;;;;;;;;;5097568;28;20264;-45
2021/07/30 00:58:30;;;;;;;4.68;3.17;;;;;;;;;;5088394;28;20182;-45
2021/07/30 01:00:56;;;;;;;2.95;2.70;;;;;;;;;;5113675;28;20203;-45
2021/07/30 01:03:22;;;;;;;4.28;2.70;;;;;;;;;;5117974;28;20180;-45
2021/07/30 01:05:49;;;;;;;5.13;2.80;;;;;;;;;;5103594;28;20204;-45
2021/07/30 01:08:15;;;;;;;3.70;2.67;;;;;;;;;;5098448;28;20178;-45
2021/07/30 01:10:41;;;;;;;2.63;2.30;;;;;;;;;;5077951;28;20444;-45
2021/07/30 01:13:07;;;;;;;3.75;2.80;;;;;;;;;;5081180;28;20166;-45
2021/07/30 01:15:33;;;;;;;2.55;2.30;;;;;;;;;;5097253;28;20580;-45
2021/07/30 01:17:59;;;;;;;3.03;2.72;;;;;;;;;;5098259;28;20180;-44
2021/07/30 01:20:26;;;;;;;3.30;2.72;;;;;;;;;;5080408;28;20253;-45
2021/07/30 01:22:59;;;;;;;4.18;2.60;;;;;;;;;;5098813;28;20181;-45
2021/07/30 01:25:26;;;;;;;3.65;2.60;;;;;;;;;;5088936;28;20193;-44
2021/07/30 01:27:52;;;;;;;3.53;2.60;;;;;;;;;;5096280;28;20630;-45
2021/07/30 01:30:19;;;;;;;4.30;2.88;;;;;;;;;;5094208;28;20423;-44
2021/07/30 01:32:45;;;;;;;2.92;2.60;;;;;;;;;;5093527;28;20302;-45
2021/07/30 01:35:11;;;;;;;2.90;2.58;;;;;;;;;;5110486;28;20887;-45
2021/07/30 01:37:37;;;;;;;4.30;2.80;;;;;;;;;;5102928;28;20690;-45
2021/07/30 01:40:04;;;;;;;3.80;2.80;;;;;;;;;;5089313;28;20324;-45
2021/07/30 01:42:30;;;;;;;2.78;2.58;;;;;;;;;;5097696;28;20170;-45
2021/07/30 01:44:56;;;;;;;2.80;2.60;;;;;;;;;;5097414;28;20181;-44
2021/07/30 01:47:22;;;;;;;3.15;2.78;;;;;;;;;;5107299;28;20218;-44
2021/07/30 01:49:51;;;;;;;3.17;2.45;;;;;;;;;;5096560;28;20173;-45
2021/07/30 01:52:18;;;;;;;2.75;2.55;;;;;;;;;;5100375;28;20251;-45
2021/07/30 01:54:44;;;;;;;2.53;2.33;;;;;;;;;;5089116;28;20205;-44
2021/07/30 01:57:11;;;;;;;3.00;2.70;;;;;;;;;;5088026;28;20177;-44
2021/07/30 01:59:37;;;;;;;3.13;2.58;;;;;;;;;;5088253;28;20197;-45
2021/07/30 02:02:03;;;;;;;3.78;2.78;;;;;;;;;;5076000;28;20588;-45
2021/07/30 02:04:29;;;;;;;3.75;2.67;;;;;;;;;;5083109;28;20188;-45
2021/07/30 02:06:55;;;;;;;3.25;2.40;;;;;;;;;;5096462;28;20580;-45
2021/07/30 02:09:21;;;;;;;4.18;2.33;;;;;;;;;;5080332;28;20188;-45
2021/07/30 02:11:51;;;;;;;3.97;2.90;;;;;;;;;;5102321;28;20176;-45
2021/07/30 02:14:17;;;;;;;3.33;2.50;;;;;;;;;;5096140;28;20184;-45
2021/07/30 02:16:47;;;;;;;3.35;2.45;;;;;;;;;;5100047;28;20579;-45
2021/07/30 02:19:14;;;;;;;3.03;2.25;;;;;;;;;;5115522;28;20234;-45
2021/07/30 02:21:40;;;;;;;3.50;2.40;;;;;;;;;;5114835;28;20177;-45
2021/07/30 02:24:07;;;;;;;2.92;2.72;;;;;;;;;;5096880;28;20251;-45
2021/07/30 02:26:33;;;;;;;4.60;2.97;;;;;;;;;;5095914;28;20201;-45
2021/07/30 02:28:59;;;;;;;3.50;2.47;;;;;;;;;;5115704;28;20176;-45
2021/07/30 02:31:25;;;;;;;4.78;3.17;;;;;;;;;;5116354;28;20165;-45
2021/07/30 02:33:51;;;;;;;2.58;2.38;;;;;;;;;;5098385;28;20201;-45
2021/07/30 02:36:17;;;;;;;3.47;3.17;;;;;;;;;;5115550;28;20173;-45
2021/07/30 02:38:43;;;;;;;4.10;3.60;;;;;;;;;;5082480;28;20214;-45
2021/07/30 02:41:09;;;;;;;3.55;2.95;;;;;;;;;;5087377;28;20455;-44
2021/07/30 02:43:35;;;;;;;3.88;2.58;;;;;;;;;;5085516;28;20188;-45
2021/07/30 02:46:01;;;;;;;2.97;2.72;;;;;;;;;;5089061;28;20603;-44
2021/07/30 02:48:27;;;;;;;2.50;2.30;;;;;;;;;;5102976;28;20189;-45
2021/07/30 02:50:53;;;;;;;3.78;2.83;;;;;;;;;;5109972;28;20180;-45
2021/07/30 02:53:19;;;;;;;5.68;2.50;;;;;;;;;;5106495;28;20177;-44
2021/07/30 02:55:48;;;;;;;3.58;2.67;;;;;;;;;;5083814;28;20753;-45
2021/07/30 02:58:15;;;;;;;4.50;2.63;;;;;;;;;;5106915;28;20575;-45
2021/07/30 03:00:41;;;;;;;3.17;2.80;;;;;;;;;;5115599;28;20189;-45
2021/07/30 03:03:07;;;;;;;3.85;2.35;;;;;;;;;;5111937;28;20180;-45
2021/07/30 03:05:33;;;;;;;3.10;2.80;;;;;;;;;;5100086;28;20281;-45
2021/07/30 03:07:59;;;;;;;4.28;2.83;;;;;;;;;;5098987;28;20541;-45
2021/07/30 03:10:25;;;;;;;3.17;2.53;;;;;;;;;;5094140;28;20177;-45
2021/07/30 03:12:51;;;;;;;2.50;2.30;;;;;;;;;;5078602;28;20166;-45
2021/07/30 03:15:17;;;;;;;3.72;2.80;;;;;;;;;;5095030;28;20614;-45
2021/07/30 03:17:43;;;;;;;4.38;2.45;;;;;;;;;;5095355;28;20234;-45
2021/07/30 03:20:09;;;;;;;4.30;2.72;;;;;;;;;;5093176;28;20512;-45
2021/07/30 03:22:36;;;;;;;6.75;2.55;;;;;;;;;;5097479;28;20177;-45
2021/07/30 03:25:02;;;;;;;3.80;2.50;;;;;;;;;;5086556;28;20220;-44
2021/07/30 03:27:28;;;;;;;2.67;2.47;;;;;;;;;;5096421;28;20205;-44
2021/07/30 03:29:54;;;;;;;5.60;2.70;;;;;;;;;;5078924;28;20172;-44
2021/07/30 03:32:20;;;;;;;2.58;2.30;;;;;;;;;;5096641;28;20174;-45
2021/07/30 03:34:46;;;;;;;2.95;2.53;;;;;;;;;;5094602;28;20689;-45
2021/07/30 03:37:13;;;;;;;3.17;2.58;;;;;;;;;;5102240;28;20539;-45
2021/07/30 03:39:38;;;;;;;3.45;2.35;;;;;;;;;;5094478;28;20173;-45
2021/07/30 03:42:05;;;;;;;2.70;2.50;;;;;;;;;;5094360;28;20560;-45
2021/07/30 03:44:31;;;;;;;2.75;2.20;;;;;;;;;;5082072;28;20193;-45
2021/07/30 03:46:57;;;;;;;3.55;2.42;;;;;;;;;;5095821;28;20197;-45
2021/07/30 03:49:23;;;;;;;3.35;2.70;;;;;;;;;;5114421;28;20443;-45
2021/07/30 03:51:49;;;;;;;4.28;2.72;;;;;;;;;;5102720;28;20173;-45
2021/07/30 03:54:15;;;;;;;4.65;2.72;;;;;;;;;;5105730;28;20181;-44
2021/07/30 03:56:42;;;;;;;3.15;2.45;;;;;;;;;;5093301;28;20553;-45
2021/07/30 03:59:09;;;;;;;4.22;2.65;;;;;;;;;;5091800;28;20174;-44
2021/07/30 04:01:35;;;;;;;9.88;3.83;;;;;;;;;;5085780;28;20201;-44
2021/07/30 04:04:01;;;;;;;7.63;3.60;;;;;;;;;;5094339;28;20173;-45
2021/07/30 04:06:27;;;;;;;10.35;3.42;;;;;;;;;;5099307;28;20318;-45
2021/07/30 04:08:53;;;;;;;7.10;4.13;;;;;;;;;;5105495;28;20537;-45
2021/07/30 04:11:19;;;;;;;11.73;4.13;;;;;;;;;;5094444;28;20184;-44
2021/07/30 04:13:46;;;;;;;9.63;3.80;;;;;;;;;;5082798;28;20190;-44
2021/07/30 04:16:12;;;;;;;7.40;3.20;;;;;;;;;;5094205;28;20193;-44
2021/07/30 04:18:38;;;;;;;10.60;3.47;;;;;;;;;;5093553;28;20173;-44
2021/07/30 04:21:05;;;;;;;6.90;3.40;;;;;;;;;;5094213;28;20453;-44
2021/07/30 04:23:31;;;;;;;6.00;3.17;;;;;;;;;;5098078;28;20254;-44
2021/07/30 04:25:57;;;;;;;8.98;3.22;;;;;;;;;;5109817;28;20263;-45
2021/07/30 04:28:24;;;;;;;5.32;3.17;;;;;;;;;;5096904;28;20186;-44
2021/07/30 04:30:49;;;;;;;9.02;3.45;;;;;;;;;;5072906;28;20568;-44
2021/07/30 04:33:15;;;;;;;6.97;3.40;;;;;;;;;;5089951;28;20184;-45
2021/07/30 04:35:41;;;;;;;6.80;3.30;;;;;;;;;;5102572;28;20177;-45
2021/07/30 04:38:08;;;;;;;7.70;3.50;;;;;;;;;;5100292;28;20174;-44
2021/07/30 04:40:34;;;;;;;9.15;2.95;;;;;;;;;;5096198;28;20205;-45
2021/07/30 04:43:00;;;;;;;6.50;3.30;;;;;;;;;;5095094;28;20171;-46
2021/07/30 04:45:26;;;;;;;8.98;3.08;;;;;;;;;;5077361;28;20186;-45
2021/07/30 04:47:52;;;;;;;6.22;3.17;;;;;;;;;;5096729;28;20467;-45
2021/07/30 04:50:19;;;;;;;5.30;3.00;;;;;;;;;;5105433;28;20544;-45
2021/07/30 04:52:45;;;;;;;6.65;3.70;;;;;;;;;;5110019;28;20232;-45
2021/07/30 04:55:11;;;;;;;6.15;3.17;;;;;;;;;;5097633;28;20182;-45
2021/07/30 04:57:37;;;;;;;4.43;2.90;;;;;;;;;;5093977;28;20182;-44
2021/07/30 05:00:03;;;;;;;5.28;3.05;;;;;;;;;;5082514;28;20178;-44
2021/07/30 05:02:29;;;;;;;6.50;2.97;;;;;;;;;;5097403;28;20541;-45
2021/07/30 05:04:55;;;;;;;4.78;3.10;;;;;;;;;;5079826;28;20169;-45
2021/07/30 05:07:22;;;;;;;7.70;3.20;;;;;;;;;;5094919;28;20209;-45
2021/07/30 05:09:48;;;;;;;5.13;3.10;;;;;;;;;;5097003;28;20178;-45
2021/07/30 05:12:14;;;;;;;4.07;2.90;;;;;;;;;;5094864;28;20182;-45
2021/07/30 05:14:40;;;;;;;5.72;2.95;;;;;;;;;;5077914;28;20174;-45
2021/07/30 05:17:06;;;;;;;4.07;2.47;;;;;;;;;;5093532;28;20593;-45
2021/07/30 05:19:32;;;;;;;5.78;2.67;;;;;;;;;;5098954;28;20248;-45
2021/07/30 05:21:58;;;;;;;4.22;2.72;;;;;;;;;;5111769;28;20482;-45
2021/07/30 05:24:24;;;;;;;5.15;2.75;;;;;;;;;;5085572;28;20247;-45
2021/07/30 05:26:50;;;;;;;3.30;2.58;;;;;;;;;;5092024;28;20199;-44
2021/07/30 05:29:16;;;;;;;4.20;2.88;;;;;;;;;;5095672;28;20177;-44
2021/07/30 05:31:42;;;;;;;3.42;2.47;;;;;;;;;;5096671;28;20165;-44
2021/07/30 05:34:08;;;;;;;3.28;2.45;;;;;;;;;;5097061;28;20544;-44
2021/07/30 05:36:33;;;;;;;3.15;2.28;;;;;;;;;;5098233;28;20180;-44
2021/07/30 05:38:59;;;;;;;4.03;2.88;;;;;;;;;;5099492;28;20508;-44
2021/07/30 05:41:25;;;;;;;4.60;3.00;;;;;;;;;;5090619;28;20190;-44
2021/07/30 05:43:51;;;;;;;3.00;2.20;;;;;;;;;;5095116;28;20213;-44
2021/07/30 05:46:19;;;;;;;2.60;2.28;;;;;;;;;;5096682;28;20240;-44
2021/07/30 05:48:45;;;;;;;2.50;2.17;;;;;;;;;;5099737;28;20248;-45
2021/07/30 05:51:11;;;;;;;4.25;2.38;;;;;;;;;;5116564;28;20161;-45
2021/07/30 05:53:37;;;;;;;3.35;2.53;;;;;;;;;;5100994;28;20178;-45
2021/07/30 05:56:03;;;;;;;3.97;2.45;;;;;;;;;;5095583;28;20181;-45
2021/07/30 05:58:31;;;;;;;3.22;2.17;;;;;;;;;;5102308;28;20258;-45
2021/07/30 06:00:57;;;;;;;2.88;2.58;;;;;;;;;;5096344;28;20167;-44
2021/07/30 06:03:23;;;;;;;3.13;2.50;;;;;;;;;;5096380;28;20193;-44
2021/07/30 06:05:49;;;;;;;2.22;2.03;;;;;;;;;;5089743;28;20281;-45
2021/07/30 06:08:15;;;;;;;3.15;2.38;;;;;;;;;;5099766;28;20260;-45
2021/07/30 06:10:41;;;;;;;2.72;2.20;;;;;;;;;;5092439;28;20181;-45
2021/07/30 06:13:07;;;;;;;2.65;2.30;;;;;;;;;;5095923;28;20166;-44
2021/07/30 06:15:33;;;;;;;3.03;2.25;;;;;;;;;;5096027;28;20181;-45
2021/07/30 06:18:02;;;;;;;3.42;2.20;;;;;;;;;;5105332;28;20173;-45
2021/07/30 06:20:28;;;;;;;2.83;2.17;;;;;;;;;;5098658;28;20165;-44
2021/07/30 06:22:54;;;;;;;2.92;2.20;;;;;;;;;;5106796;28;20235;-44
2021/07/30 06:25:20;;;;;;;2.55;1.98;;;;;;;;;;5095044;28;20273;-44
2021/07/30 06:27:46;;;;;;;3.42;2.20;;;;;;;;;;5083737;28;20208;-44
2021/07/30 06:30:12;;;;;;;3.22;1.95;;;;;;;;;;5115772;28;20189;-44
2021/07/30 06:32:38;;;;;;;3.35;2.10;;;;;;;;;;5116046;28;20172;-44
2021/07/30 06:35:05;;;;;;;2.42;2.13;;;;;;;;;;5098144;28;20571;-44
2021/07/30 06:37:37;;;;;;;3.33;1.90;;;;;;;;;;5100483;28;20904;-45
2021/07/30 06:40:05;;;;;;;2.38;2.17;;;;;;;;;;5101158;28;20497;-45
2021/07/30 06:42:34;;;;;;;3.63;2.00;;;;;;;;;;5095253;28;20169;-44
2021/07/30 06:45:00;;;;;;;2.70;2.42;;;;;;;;;;5096559;28;20461;-44
2021/07/30 06:47:26;;;;;;;3.45;2.35;;;;;;;;;;5115363;28;20291;-45
2021/07/30 06:49:52;;;;;;;4.07;2.67;;;;;;;;;;5115436;28;20177;-45
2021/07/30 06:52:18;;;;;;;3.60;2.42;;;;;;;;;;5104371;28;20174;-45
2021/07/30 06:54:44;;;;;;;3.53;2.28;;;;;;;;;;5089658;28;20545;-44
2021/07/30 06:57:11;;;;;;;2.20;2.00;;;;;;;;;;5084486;28;20217;-44
2021/07/30 06:59:37;;;;;;;3.00;2.70;;;;;;;;;;5096517;28;20182;-45
2021/07/30 07:02:04;;;;;;;2.10;1.90;;;;;;;;;;5095057;28;20176;-45
2021/07/30 07:04:30;;;;;;;2.10;1.90;;;;;;;;;;5096349;28;20207;-45
2021/07/30 07:06:57;;;;;;;2.35;2.15;;;;;;;;;;5113252;28;20225;-45
2021/07/30 07:09:23;;;;;;;2.53;2.25;;;;;;;;;;5095692;28;20216;-45
2021/07/30 07:11:49;;;;;;;3.13;2.40;;;;;;;;;;5095929;28;20231;-45
2021/07/30 07:14:15;;;;;;;2.03;1.88;;;;;;;;;;5095023;28;20583;-45
2021/07/30 07:16:42;;;;;;;2.03;1.83;;;;;;;;;;5092821;28;20166;-45
2021/07/30 07:19:09;;;;;;;3.15;2.03;;;;;;;;;;5076448;28;20174;-44
2021/07/30 07:21:35;;;;;;;3.38;2.13;;;;;;;;;;5102538;28;20187;-44
2021/07/30 07:24:01;;;;;;;5.10;2.40;;;;;;;;;;5087930;28;20211;-45
2021/07/30 07:26:27;;;;;;;2.30;2.10;;;;;;;;;;5094789;28;20568;-44
2021/07/30 07:28:53;;;;;;;3.47;2.30;;;;;;;;;;5094255;28;20227;-44
2021/07/30 07:31:19;;;;;;;2.67;1.90;;;;;;;;;;5094785;28;20426;-44
2021/07/30 07:33:45;;;;;;;1.90;1.80;;;;;;;;;;5096096;28;20185;-44
2021/07/30 07:36:11;;;;;;;2.80;2.05;;;;;;;;;;5094681;28;20182;-45
2021/07/30 07:38:37;;;;;;;2.90;2.50;;;;;;;;;;5092436;28;20242;-44
2021/07/30 07:41:03;;;;;;;4.22;2.20;;;;;;;;;;5076984;28;20170;-45
2021/07/30 07:43:29;;;;;;;2.58;2.13;;;;;;;;;;5094535;28;20192;-44
2021/07/30 07:45:56;;;;;;;4.38;2.10;;;;;;;;;;5104600;28;20691;-45
2021/07/30 07:48:22;;;;;;;3.17;2.13;;;;;;;;;;5098955;28;20185;-45
2021/07/30 07:50:48;;;;;;;2.35;2.10;;;;;;;;;;5094602;28;20264;-45
2021/07/30 07:53:18;;;;;;;4.57;2.22;;;;;;;;;;5102501;28;20310;-44
2021/07/30 07:55:44;;;;;;;3.92;2.20;;;;;;;;;;5074559;28;20206;-44
2021/07/30 07:58:10;;;;;;;4.65;2.20;;;;;;;;;;5103738;28;20169;-44
2021/07/30 08:00:37;;;;;;;2.67;2.13;;;;;;;;;;5114665;28;20181;-44
2021/07/30 08:03:03;;;;;;;3.38;2.40;;;;;;;;;;5114820;28;20174;-44
2021/07/30 08:05:29;;;;;;;3.47;2.45;;;;;;;;;;5098585;28;20451;-45
2021/07/30 08:07:55;;;;;;;3.17;2.10;;;;;;;;;;5102176;28;20205;-44
2021/07/30 08:10:21;;;;;;;3.45;1.90;;;;;;;;;;5094731;28;20173;-45
2021/07/30 08:12:47;;;;;;;2.10;2.00;;;;;;;;;;5094055;28;20431;-44
2021/07/30 08:15:14;;;;;;;2.35;2.00;;;;;;;;;;5096412;28;20170;-44
2021/07/30 08:17:40;;;;;;;3.63;2.28;;;;;;;;;;5100188;28;20204;-44
2021/07/30 08:20:07;;;;;;;4.13;2.45;;;;;;;;;;5108459;28;20204;-44
2021/07/30 08:22:33;;;;;;;2.72;1.98;;;;;;;;;;5111811;28;20252;-44
2021/07/30 08:24:59;;;;;;;3.30;2.35;;;;;;;;;;5098040;28;20292;-44
2021/07/30 08:27:25;;;;;;;2.83;2.17;;;;;;;;;;5096975;28;20284;-45
2021/07/30 08:29:51;;;;;;;3.53;1.98;;;;;;;;;;5077816;28;20183;-44
2021/07/30 08:32:17;;;;;;;4.35;2.22;;;;;;;;;;5077732;28;20185;-44
2021/07/30 08:34:43;;;;;;;2.30;2.05;;;;;;;;;;5113259;28;20181;-47
2021/07/30 08:37:10;;;;;;;3.65;2.40;;;;;;;;;;5114460;28;20173;-45
2021/07/30 08:39:36;;;;;;;3.47;2.17;;;;;;;;;;5098050;28;20186;-44
2021/07/30 08:42:03;;;;;;;2.97;2.25;;;;;;;;;;5097878;28;20553;-44
2021/07/30 08:44:30;;;;;;;3.83;2.47;;;;;;;;;;5096797;28;20182;-45
2021/07/30 08:46:56;;;;;;;3.65;2.30;;;;;;;;;;5115517;28;20209;-45
2021/07/30 08:49:22;;;;;;;5.93;2.50;;;;;;;;;;5097662;28;20189;-44
2021/07/30 08:51:51;;;;;;;2.35;2.10;;;;;;;;;;5098733;28;20173;-45
2021/07/30 08:54:17;;;;;;;3.92;2.50;;;;;;;;;;5109051;28;20174;-44
2021/07/30 08:56:43;;;;;;;2.85;2.30;;;;;;;;;;5097618;28;20199;-44
2021/07/30 08:59:10;;;;;;;3.33;2.33;;;;;;;;;;5115991;28;20228;-45
2021/07/30 09:01:36;;;;;;;3.33;2.58;;;;;;;;;;5107057;28;20185;-45
2021/07/30 09:04:02;;;;;;;2.35;2.10;;;;;;;;;;5089601;28;20183;-44
2021/07/30 09:06:28;;;;;;;6.13;2.70;;;;;;;;;;5090738;28;20662;-45
2021/07/30 09:08:54;;;;;;;3.15;2.63;;;;;;;;;;5100504;28;20181;-44
2021/07/30 09:11:27;;;;;;;3.65;2.70;;;;;;;;;;5097680;28;20174;-44
2021/07/30 09:13:53;;;;;;;3.90;2.72;;;;;;;;;;5097385;28;20193;-44
2021/07/30 09:16:19;;;;;;;4.07;2.50;;;;;;;;;;5097158;28;20185;-44
2021/07/30 09:18:45;;;;;;;7.90;2.60;;;;;;;;;;5087569;28;20197;-44
2021/07/30 09:21:28;;;;;;;3.15;2.53;;;;;;;;;;5082780;28;20192;-44
2021/07/30 09:24:08;;;;;;;3.33;2.20;;;;;;;;;;5099942;28;20461;-44
2021/07/30 09:26:34;;;;;;;2.58;2.35;;;;;;;;;;5096056;28;20432;-44
2021/07/30 09:29:05;;;;;;;2.78;2.58;;;;;;;;;;5091708;28;20199;-45
2021/07/30 09:31:44;;;;;;;3.42;2.10;;;;;;;;;;5110757;28;20463;-45
2021/07/30 09:34:11;;;;;;;3.30;2.10;;;;;;;;;;5113123;28;20566;-45
2021/07/30 09:36:44;;;;;;;3.55;2.40;;;;;;;;;;5102711;28;20186;-44
2021/07/30 09:39:10;;;;;;;2.60;2.40;;;;;;;;;;5107743;28;20184;-45
2021/07/30 09:41:36;;;;;;;3.25;2.20;;;;;;;;;;5096619;28;20197;-45
2021/07/30 09:44:06;;;;;;;3.65;2.20;;;;;;;;;;5096776;28;20173;-45
2021/07/30 09:46:32;;;;;;;4.07;2.55;;;;;;;;;;5108602;28;20611;-45
2021/07/30 09:48:59;;;;;;;3.75;2.20;;;;;;;;;;5116442;28;20177;-45
2021/07/30 09:51:25;;;;;;;2.60;2.40;;;;;;;;;;5099878;28;20276;-45
2021/07/30 09:53:51;;;;;;;2.17;1.98;;;;;;;;;;5099352;28;20347;-44
2021/07/30 09:56:17;;;;;;;2.92;2.38;;;;;;;;;;5096283;28;20251;-44
2021/07/30 09:58:45;;;;;;;3.72;2.47;;;;;;;;;;5095950;28;20177;-44
2021/07/30 10:01:21;;;;;;;4.38;2.60;;;;;;;;;;5096516;28;20188;-44
2021/07/30 10:03:48;;;;;;;2.25;2.00;;;;;;;;;;5096234;28;20253;-44
2021/07/30 10:06:14;;;;;;;3.85;2.35;;;;;;;;;;5090297;28;20866;-45
2021/07/30 10:08:41;;;;;;;4.28;2.08;;;;;;;;;;5086451;28;20264;-45
2021/07/30 10:11:09;;;;;;;2.38;2.17;;;;;;;;;;5092007;28;20731;-45
2021/07/30 10:13:39;;;;;;;3.50;2.60;;;;;;;;;;5088455;28;20178;-45
2021/07/30 10:16:05;;;;;;;2.47;2.28;;;;;;;;;;5116430;28;20248;-45
2021/07/30 10:18:32;;;;;;;4.40;2.40;;;;;;;;;;5102541;28;20207;-44
2021/07/30 10:21:01;;;;;;;8.88;2.80;;;;;;;;;;5109926;28;20197;-44
2021/07/30 10:23:27;;;;;;;3.35;2.55;;;;;;;;;;5108237;28;20181;-44
2021/07/30 10:25:55;;;;;;;3.10;2.38;;;;;;;;;;5098836;28;20193;-45
2021/07/30 10:28:22;;;;;;;2.95;2.42;;;;;;;;;;5090513;28;20550;-45
2021/07/30 10:30:58;;;;;;;2.40;2.20;;;;;;;;;;5079036;28;20706;-45
2021/07/30 10:33:34;;;;;;;4.95;2.50;;;;;;;;;;5096706;28;20173;-45
2021/07/30 10:36:00;;;;;;;2.63;2.40;;;;;;;;;;5114218;28;20181;-45
2021/07/30 10:38:26;;;;;;;4.10;2.58;;;;;;;;;;5098237;28;20227;-45
2021/07/30 10:40:56;;;;;;;3.83;2.15;;;;;;;;;;5095397;28;20170;-44
2021/07/30 10:43:27;;;;;;;3.22;2.50;;;;;;;;;;5090041;28;20227;-45
2021/07/30 10:46:05;;;;;;;2.53;2.33;;;;;;;;;;5084016;28;20181;-45
2021/07/30 10:48:33;;;;;;;2.40;2.20;;;;;;;;;;5095123;28;20173;-45
2021/07/30 10:51:01;;;;;;;2.50;2.30;;;;;;;;;;5100197;28;20177;-44
2021/07/30 10:53:39;;;;;;;2.55;2.35;;;;;;;;;;5095911;28;20166;-44
2021/07/30 10:56:08;;;;;;;6.38;2.65;;;;;;;;;;5095214;28;20441;-44
2021/07/30 10:58:40;;;;;;;3.42;2.90;;;;;;;;;;5094768;28;20219;-45
2021/07/30 11:01:16;;;;;;;6.10;2.40;;;;;;;;;;5093744;28;20173;-45
2021/07/30 11:03:51;;;;;;;3.83;2.33;;;;;;;;;;5098320;28;20268;-45
2021/07/30 11:06:17;;;;;;;4.25;2.88;;;;;;;;;;5094978;28;20440;-44
2021/07/30 11:09:05;;;;;;;3.42;2.45;;;;;;;;;;5107055;28;20181;-45
2021/07/30 11:11:49;;;;;;;3.35;2.90;;;;;;;;;;5094056;28;20248;-45
2021/07/30 11:14:23;;;;;;;3.10;2.67;;;;;;;;;;5095314;28;20170;-45
2021/07/30 11:16:54;;;;;;;4.55;2.63;;;;;;;;;;5094987;28;20162;-45
2021/07/30 11:19:21;;;;;;;4.38;2.80;;;;;;;;;;5098393;28;20224;-45
2021/07/30 11:21:47;;;;;;;4.03;2.42;;;;;;;;;;5113399;28;20185;-45
2021/07/30 11:24:14;;;;;;;5.13;2.45;;;;;;;;;;5096645;28;20224;-45
2021/07/30 11:26:40;;;;;;;3.45;2.47;;;;;;;;;;5103038;28;20197;-44
2021/07/30 11:29:08;;;;;;;3.65;2.42;;;;;;;;;;5114505;28;20173;-45
2021/07/30 11:31:38;;;;;;;5.13;2.83;;;;;;;;;;5114103;28;20185;-45
2021/07/30 11:34:10;;;;;;;4.93;2.55;;;;;;;;;;5112237;28;20436;-44
2021/07/30 11:36:36;;;;;;;4.47;2.95;;;;;;;;;;5081813;28;20182;-45
2021/07/30 11:39:02;;;;;;;5.30;2.72;;;;;;;;;;5104900;28;20187;-45
2021/07/30 11:41:28;;;;;;;2.72;2.53;;;;;;;;;;5114131;28;20234;-44
2021/07/30 11:44:01;;;;;;;2.55;2.35;;;;;;;;;;5114458;28;20169;-45
2021/07/30 11:46:28;;;;;;;2.92;2.63;;;;;;;;;;5114458;28;20197;-45
2021/07/30 11:48:54;;;;;;;4.57;2.80;;;;;;;;;;5113537;28;20428;-45
2021/07/30 11:51:20;;;;;;;3.90;2.83;;;;;;;;;;5108685;28;20425;-45
2021/07/30 11:53:48;;;;;;;3.17;2.63;;;;;;;;;;5106751;28;20174;-44
2021/07/30 11:56:17;;;;;;;6.85;2.70;;;;;;;;;;5094541;28;20249;-45
2021/07/30 11:58:56;;;;;;;5.30;3.20;;;;;;;;;;5089767;28;20189;-44
2021/07/30 12:01:22;;;;;;;3.30;3.00;;;;;;;;;;5093977;28;20178;-45
2021/07/30 12:04:06;;;;;;;3.00;2.75;;;;;;;;;;5111612;28;20181;-45
2021/07/30 12:06:49;;;;;;;3.97;2.55;;;;;;;;;;5113525;28;20583;-44
2021/07/30 12:09:16;;;;;;;2.55;2.35;;;;;;;;;;5102064;28;20185;-45
2021/07/30 12:11:50;;;;;;;5.28;3.13;;;;;;;;;;5093924;28;20820;-45
2021/07/30 12:14:16;;;;;;;4.80;3.05;;;;;;;;;;5090227;28;20189;-45
2021/07/30 12:16:43;;;;;;;5.93;2.40;;;;;;;;;;5114678;28;20165;-45
2021/07/30 12:19:09;;;;;;;4.30;2.78;;;;;;;;;;5114188;28;20173;-44
2021/07/30 12:21:35;;;;;;;2.90;2.63;;;;;;;;;;5100010;28;20571;-45
2021/07/30 12:24:08;;;;;;;4.43;2.60;;;;;;;;;;5106505;28;20205;-45
2021/07/30 12:26:38;;;;;;;5.80;2.90;;;;;;;;;;5103530;28;20548;-44
2021/07/30 12:29:05;;;;;;;3.10;2.80;;;;;;;;;;5093795;28;20600;-45
2021/07/30 12:31:31;;;;;;;3.70;2.42;;;;;;;;;;5094278;28;20254;-45
2021/07/30 12:34:17;;;;;;;3.63;2.58;;;;;;;;;;5094183;28;20162;-45
2021/07/30 12:36:43;;;;;;;3.17;2.78;;;;;;;;;;5099814;28;20182;-44
2021/07/30 12:39:10;;;;;;;4.10;3.08;;;;;;;;;;5106727;28;20658;-45
2021/07/30 12:41:36;;;;;;;4.72;2.50;;;;;;;;;;5114333;28;20177;-45
2021/07/30 12:44:12;;;;;;;4.43;2.47;;;;;;;;;;5095146;28;20193;-45
2021/07/30 12:46:47;;;;;;;4.20;2.53;;;;;;;;;;5088837;28;20208;-45
2021/07/30 12:49:14;;;;;;;4.28;2.97;;;;;;;;;;5093606;28;20255;-44
2021/07/30 12:51:42;;;;;;;4.82;2.72;;;;;;;;;;5097836;28;20235;-45
2021/07/30 12:54:10;;;;;;;3.95;2.58;;;;;;;;;;5105247;28;20177;-45
2021/07/30 12:56:56;;;;;;;4.88;2.80;;;;;;;;;;5094058;28;20166;-44
2021/07/30 12:59:40;;;;;;;4.80;2.60;;;;;;;;;;5080902;28;20178;-44
2021/07/30 13:02:06;;;;;;;3.85;2.50;;;;;;;;;;5094073;28;20181;-45
2021/07/30 13:04:32;;;;;;;3.60;2.55;;;;;;;;;;5077985;28;20655;-45
2021/07/30 13:06:59;;;;;;;4.43;2.63;;;;;;;;;;5087280;28;20204;-45
2021/07/30 13:09:25;;;;;;;3.20;2.65;;;;;;;;;;5084595;28;20273;-45
2021/07/30 13:11:51;;;;;;;2.92;2.40;;;;;;;;;;5089612;28;20253;-44
2021/07/30 13:14:17;;;;;;;2.92;2.70;;;;;;;;;;5088103;28;20553;-44
2021/07/30 13:16:43;;;;;;;2.63;2.42;;;;;;;;;;5076982;28;20175;-45
2021/07/30 13:19:09;;;;;;;3.08;2.75;;;;;;;;;;5077722;28;20205;-45
2021/07/30 13:21:35;;;;;;;2.97;2.60;;;;;;;;;;5111933;28;20188;-45
2021/07/30 13:24:01;;;;;;;2.85;2.60;;;;;;;;;;5096201;28;20193;-44
2021/07/30 13:26:27;;;;;;;2.88;2.55;;;;;;;;;;5109985;28;20473;-44
2021/07/30 13:28:53;;;;;;;3.78;2.80;;;;;;;;;;5116186;28;20173;-45
2021/07/30 13:31:19;;;;;;;3.45;2.83;;;;;;;;;;5096826;28;20192;-45
2021/07/30 13:33:45;;;;;;;4.80;2.83;;;;;;;;;;5095682;28;20606;-46
2021/07/30 13:36:11;;;;;;;4.35;2.90;;;;;;;;;;5101826;28;20181;-45
2021/07/30 13:38:37;;;;;;;3.80;3.15;;;;;;;;;;5101721;28;20256;-45
2021/07/30 13:41:03;;;;;;;4.05;2.85;;;;;;;;;;5096627;28;20457;-45
2021/07/30 13:43:29;;;;;;;2.97;2.67;;;;;;;;;;5088249;28;20538;-45
2021/07/30 13:45:55;;;;;;;3.88;2.90;;;;;;;;;;5076247;28;20180;-44
2021/07/30 13:48:21;;;;;;;5.47;3.00;;;;;;;;;;5102458;28;20185;-45
2021/07/30 13:50:47;;;;;;;3.75;3.00;;;;;;;;;;5105775;28;20178;-45
2021/07/30 13:53:13;;;;;;;3.35;2.90;;;;;;;;;;5096986;28;20500;-45
2021/07/30 13:55:40;;;;;;;4.70;2.70;;;;;;;;;;5094872;28;20256;-45
2021/07/30 13:58:06;;;;;;;4.40;2.70;;;;;;;;;;5095828;28;20748;-45
2021/07/30 14:00:32;;;;;;;2.80;2.60;;;;;;;;;;5109284;28;20185;-45
2021/07/30 14:02:58;;;;;;;3.78;2.70;;;;;;;;;;5116705;28;20173;-45
2021/07/30 14:05:24;;;;;;;4.75;2.78;;;;;;;;;;5116633;28;20212;-45
2021/07/30 14:07:50;;;;;;;4.28;3.10;;;;;;;;;;5107367;28;20227;-45
2021/07/30 14:10:17;;;;;;;3.20;2.42;;;;;;;;;;5095696;28;20565;-44
2021/07/30 14:12:43;;;;;;;3.33;2.85;;;;;;;;;;5108649;28;20184;-46
2021/07/30 14:15:10;;;;;;;6.03;2.72;;;;;;;;;;5116583;28;20248;-45
2021/07/30 14:17:36;;;;;;;3.25;2.90;;;;;;;;;;5114867;28;20188;-45
2021/07/30 14:20:06;;;;;;;6.43;3.08;;;;;;;;;;5114479;28;20184;-46
2021/07/30 14:22:32;;;;;;;6.07;2.97;;;;;;;;;;5110661;28;20616;-45
2021/07/30 14:24:58;;;;;;;4.15;2.63;;;;;;;;;;5095468;28;20193;-45
2021/07/30 14:27:24;;;;;;;2.75;2.55;;;;;;;;;;5094106;28;20221;-45
2021/07/30 14:29:50;;;;;;;4.82;2.83;;;;;;;;;;5100740;28;20214;-45
2021/07/30 14:32:16;;;;;;;3.15;2.78;;;;;;;;;;5115771;28;20173;-45
2021/07/30 14:34:42;;;;;;;5.13;2.72;;;;;;;;;;5107681;28;20549;-44
2021/07/30 14:37:08;;;;;;;3.33;2.90;;;;;;;;;;5105422;28;20185;-45
2021/07/30 14:39:34;;;;;;;3.22;2.92;;;;;;;;;;5105881;28;20553;-45
2021/07/30 14:42:00;;;;;;;3.00;2.80;;;;;;;;;;5095627;28;20227;-45
2021/07/30 14:44:26;;;;;;;4.85;3.10;;;;;;;;;;5077504;28;20569;-45